Flight Track Log - Related Links

Times and Time Zones

All times are in EDT time to prevent confusion due to time zone crossing. See the JZA8471 flight status page for this flight to view local times or setup timezone preferences in your user account.

Time Position Orientation Groundspeed Altitude Reporting Facility
EDT Latitude Longitude Course Direction KTS MPH feet Rate Location/Type
Tue 10:13:35 AM 50.4000 -104.6667 308° West 80 92 1,800  Level Winnipeg Center
Tue 10:14:35 AM 50.4333 -104.7333 308° West 170 196 3,000 1,250 Climbing Winnipeg Center
Tue 10:15:35 AM 50.4833 -104.7833 328° Northwest 180 207 4,300 1,100 Climbing Winnipeg Center
Tue 10:16:35 AM 50.5167 -104.8500 308° West 200 230 5,200 1,000 Climbing Winnipeg Center
Tue 10:17:00 AM 50.6553 -104.8720 328° Northwest  Level FlightAware Approximate
Tue 10:17:35 AM 50.5333 -104.9333 287° West 200 230 6,300  Level Winnipeg Center
Tue 10:18:00 AM 50.6958 -104.9583 308° West  Level FlightAware Approximate
Tue 10:18:35 AM 50.5667 -104.9833 316° Northwest 200 230 7,200  Level Winnipeg Center
Tue 10:19:35 AM 50.6167 -105.0667 313° West 200 230 8,100 850 Climbing Winnipeg Center
Tue 10:20:35 AM 50.6500 -105.1333 308° West 210 242 8,900 750 Climbing Winnipeg Center
Tue 10:21:35 AM 50.6667 -105.2167 288° West 210 242 9,600 850 Climbing Winnipeg Center
Tue 10:22:35 AM 50.7167 -105.2833 320° Northwest 210 242 10,600 800 Climbing Winnipeg Center
Tue 10:23:35 AM 50.7500 -105.3667 302° West 210 242 11,200 750 Climbing Winnipeg Center
Tue 10:24:35 AM 50.7667 -105.4500 288° West 210 242 12,100 850 Climbing Winnipeg Center
Tue 10:25:35 AM 50.8167 -105.5167 320° Northwest 210 242 12,900 750 Climbing Winnipeg Center
Tue 10:26:35 AM 50.8500 -105.6000 302° West 210 242 13,600 650 Climbing Winnipeg Center
Tue 10:27:35 AM 50.8833 -105.6833 302° West 210 242 14,200 550 Climbing Winnipeg Center
Tue 10:28:35 AM 50.9167 -105.7333 317° Northwest 220 253 14,700 650 Climbing Winnipeg Center
Tue 10:29:35 AM 50.9667 -105.8333 308° West 220 253 15,500 600 Climbing Winnipeg Center
Tue 10:30:35 AM 50.9833 -105.9167 288° West 210 242 15,900 514 Climbing Winnipeg Center
Tue 10:31:20 AM 51.0000 -105.9333 328° Northwest 210 242 16,400 571 Climbing Edmonton Center
Tue 10:32:20 AM 51.0333 -106.0167 302° West 210 242 16,900 500 Climbing Edmonton Center
Tue 10:33:20 AM 51.0833 -106.1000 314° West 210 242 17,400 500 Climbing Edmonton Center
Tue 10:34:20 AM 51.1167 -106.1500 317° Northwest 210 242 17,900 400 Climbing Edmonton Center
Tue 10:35:20 AM 51.1500 -106.2333 303° West 210 242 18,200 400 Climbing Edmonton Center
Tue 10:36:20 AM 51.1833 -106.3167 303° West 210 242 18,700 500 Climbing Edmonton Center
Tue 10:37:20 AM 51.2167 -106.4000 303° West 200 230 19,200 500 Climbing Edmonton Center
Tue 10:38:20 AM 51.2500 -106.4667 309° West 200 230 19,700 400 Climbing Edmonton Center
Tue 10:39:20 AM 51.2833 -106.5333 309° West 200 230 20,000 150 Climbing Edmonton Center
Tue 10:40:20 AM 51.3167 -106.6167 303° West 210 242 20,000  Level Edmonton Center
Tue 10:41:20 AM 51.3500 -106.7000 303° West 220 253 20,000  Level Edmonton Center
Tue 10:42:20 AM 51.3667 -106.8000 285° West 230 265 20,000  Level Edmonton Center
Tue 10:43:20 AM 51.4000 -106.8833 303° West 230 265 20,000  Level Edmonton Center
Tue 10:44:20 AM 51.4500 -106.9667 314° West 230 265 20,000  Level Edmonton Center
Tue 10:45:20 AM 51.4833 -107.0500 303° West 240 276 20,000  Level Edmonton Center
Tue 10:46:20 AM 51.5167 -107.1333 303° West 240 276 20,000  Level Edmonton Center
Tue 10:47:35 AM 51.5833 -107.2833 306° West 240 276 20,000  Level Winnipeg Center
Tue 10:48:35 AM 51.6333 -107.3667 314° West 240 276 20,000  Level Winnipeg Center
Tue 10:49:35 AM 51.6500 -107.4667 285° West 240 276 20,000  Level Winnipeg Center
Tue 10:50:35 AM 51.7000 -107.5500 314° West 240 276 20,000  Level Winnipeg Center
Tue 10:51:35 AM 51.7167 -107.6333 288° West 240 276 20,000  Level Winnipeg Center
Tue 10:52:35 AM 51.7667 -107.7333 309° West 240 276 20,000  Level Winnipeg Center
Tue 10:53:35 AM 51.8000 -107.8167 303° West 240 276 20,000  Level Winnipeg Center
Tue 10:54:35 AM 51.8500 -107.9167 309° West 240 276 20,000  Level Winnipeg Center
Tue 10:55:20 AM 51.8500 -107.9500 270° West 240 276 20,000  Level Edmonton Center
Tue 10:56:20 AM 51.8833 -108.0333 303° West 240 276 20,000  Level Edmonton Center
Tue 10:57:20 AM 51.9333 -108.1167 314° West 240 276 20,000  Level Edmonton Center
Tue 10:58:20 AM 51.9667 -108.2000 303° West 240 276 20,000  Level Edmonton Center
Tue 10:59:20 AM 52.0167 -108.3167 305° West 240 276 20,000  Level Edmonton Center
Tue 11:00:20 AM 52.0500 -108.4000 303° West 240 276 20,000  Level Edmonton Center
Tue 11:01:20 AM 52.0833 -108.4833 303° West 240 276 20,000  Level Edmonton Center
Tue 11:02:20 AM 52.1333 -108.5667 314° West 240 276 20,000  Level Edmonton Center
Tue 11:03:20 AM 52.1500 -108.6500 288° West 240 276 20,000  Level Edmonton Center
Tue 11:04:20 AM 52.1833 -108.7667 295° West 240 276 20,000  Level Edmonton Center
Tue 11:05:20 AM 52.2333 -108.8500 314° West 240 276 20,000  Level Edmonton Center
Tue 11:06:20 AM 52.2667 -108.9333 303° West 240 276 20,000  Level Edmonton Center
Tue 11:07:20 AM 52.3000 -109.0500 295° West 240 276 20,000  Level Edmonton Center
Tue 11:08:20 AM 52.3500 -109.1500 309° West 240 276 20,000  Level Edmonton Center
Tue 11:09:20 AM 52.3667 -109.2333 288° West 240 276 20,000  Level Edmonton Center
Tue 11:10:35 AM 52.4167 -109.3833 299° West 250 288 20,000  Level Winnipeg Center
Tue 11:11:35 AM 52.4667 -109.4833 309° West 250 288 20,000  Level Winnipeg Center
Tue 11:12:35 AM 52.5000 -109.5833 299° West 250 288 20,000  Level Winnipeg Center
Tue 11:13:35 AM 52.5500 -109.6667 315° West 250 288 20,000  Level Winnipeg Center
Tue 11:14:20 AM 52.5500 -109.7167 270° West 250 288 20,000  Level Edmonton Center
Tue 11:15:20 AM 52.5833 -109.8000 303° West 250 288 20,000  Level Edmonton Center
Tue 11:16:35 AM 52.6500 -109.9500 306° West 250 288 20,000  Level Winnipeg Center
Tue 11:17:35 AM 52.6833 -110.0500 299° West 250 288 20,000  Level Winnipeg Center
Tue 11:18:35 AM 52.7000 -110.1667 283° West 240 276 20,000  Level Winnipeg Center
Tue 11:19:20 AM 52.7000 -110.2167 270° West 250 288 20,000  Level Edmonton Center
Tue 11:20:20 AM 52.7167 -110.3333 283° West 250 288 20,000  Level Edmonton Center
Tue 11:21:20 AM 52.7500 -110.4333 299° West 250 288 20,000  Level Edmonton Center
Tue 11:22:20 AM 52.7500 -110.5500 270° West 250 288 20,000  Level Edmonton Center
Tue 11:23:20 AM 52.7667 -110.6667 283° West 250 288 20,000  Level Edmonton Center
Tue 11:24:20 AM 52.7833 -110.7833 283° West 250 288 20,000  Level Edmonton Center
Tue 11:25:20 AM 52.8000 -110.9000 283° West 250 288 20,000  Level Edmonton Center
Tue 11:26:20 AM 52.8167 -111.0167 283° West 250 288 20,000  Level Edmonton Center
Tue 11:27:20 AM 52.8333 -111.1167 285° West 250 288 20,000  Level Edmonton Center
Tue 11:28:20 AM 52.8333 -111.2333 270° West 250 288 20,000  Level Edmonton Center
Tue 11:29:20 AM 52.8667 -111.3500 295° West 250 288 20,000  Level Edmonton Center
Tue 11:30:20 AM 52.8833 -111.4667 283° West 260 299 20,000  Level Edmonton Center
Tue 11:31:20 AM 52.8833 -111.5833 270° West 260 299 20,000  Level Edmonton Center
Tue 11:32:20 AM 52.9000 -111.7333 280° West 250 288 20,000 -100 Level Edmonton Center
Tue 11:33:20 AM 52.9167 -111.8500 283° West 260 299 19,800 -250 Descending Edmonton Center
Tue 11:34:20 AM 52.9333 -111.9500 285° West 260 299 19,500 -300 Descending Edmonton Center
Tue 11:35:20 AM 52.9500 -112.0667 283° West 270 311 19,200 -300 Descending Edmonton Center
Tue 11:36:20 AM 52.9667 -112.1833 283° West 270 311 18,900 -300 Descending Edmonton Center
Tue 11:37:20 AM 52.9833 -112.3333 281° West 270 311 18,600 -300 Descending Edmonton Center
Tue 11:38:20 AM 52.9833 -112.4500 270° West 270 311 18,300 -350 Descending Edmonton Center
Tue 11:39:20 AM 53.0167 -112.5833 293° West 280 322 17,900 -950 Descending Edmonton Center
Tue 11:40:20 AM 53.0333 -112.7167 282° West 280 322 16,400 -1,550 Descending Edmonton Center
Tue 11:41:20 AM 53.0500 -112.8167 286° West 290 334 14,800 -1,700 Descending Edmonton Center
Tue 11:42:20 AM 53.0500 -112.9667 270° West 280 322 13,000 -1,750 Descending Edmonton Center
Tue 11:43:20 AM 53.0833 -113.0833 295° West 280 322 11,300 -1,750 Descending Edmonton Center
Tue 11:44:20 AM 53.0833 -113.2333 270° West 270 311 9,500 -1,650 Descending Edmonton Center
Tue 11:45:20 AM 53.1000 -113.3500 283° West 260 299 8,000 -1,300 Descending Edmonton Center
Tue 11:46:20 AM 53.1167 -113.4667 283° West 250 288 6,900 -1,050 Descending Edmonton Center
Tue 11:47:20 AM 53.1333 -113.5833 283° West 200 230 5,900 -1,000 Descending Edmonton Center
Tue 11:48:20 AM 53.1667 -113.6167 329° Northwest 200 230 4,900 -950 Descending Edmonton Center
Tue 11:49:20 AM 53.2000 -113.6833 310° West 190 219 4,000 -850 Descending Edmonton Center
Tue 11:50:20 AM 53.2500 -113.6667 11° North 150 173 3,200 -800 Descending Edmonton Center
Tue 11:51:20 AM 53.2833 -113.6333 31° Northeast 120 138 2,400 -450 Descending Edmonton Center
Tue 11:52:20 AM 53.3167 -113.5833 42° Northeast 110 127 2,300 -100 Descending Edmonton Center

Login

Don't have an account? Register now (free) for customized features, flight alerts, and more!